Time;durP1;ratioP1;P1;durP2;ratioP2;P2;SDS_P1;SDS_P2;PMS_P1;PMS_P2;Temp;Humidity;BMP_temperature;BMP_pressure;BME280_temperature;BME280_humidity;BME280_pressure;Samples;Min_cycle;Max_cycle;Signal;HPM_P1;HPM_P2
2022/09/06 00:02:12;;;;;;;9.23;5.47;;;;;;;21.83;55.40;93756.53;4838522;29;20042;-87
2022/09/06 00:04:37;;;;;;;6.55;4.78;;;;;;;21.84;55.44;93751.78;4843630;29;20505;-88
2022/09/06 00:07:05;;;;;;;7.45;5.15;;;;;;;21.83;55.38;93764.78;4843383;29;20033;-90
2022/09/06 00:09:30;;;;;;;6.38;4.85;;;;;;;21.85;55.53;93761.50;4851245;29;20077;-88
2022/09/06 00:11:56;;;;;;;7.70;5.25;;;;;;;21.84;55.22;93762.78;4861833;29;20045;-87
2022/09/06 00:14:21;;;;;;;7.63;5.22;;;;;;;21.84;55.32;93760.03;4838415;29;20098;-91
2022/09/06 00:16:47;;;;;;;6.35;4.90;;;;;;;21.86;55.20;93765.75;4841993;29;20049;-89
2022/09/06 00:19:12;;;;;;;7.95;5.70;;;;;;;21.85;55.17;93750.50;4821026;29;20045;-89
2022/09/06 00:21:37;;;;;;;8.75;4.95;;;;;;;21.84;55.20;93746.28;4862888;29;20041;-92
2022/09/06 00:24:03;;;;;;;7.13;5.05;;;;;;;21.84;55.40;93754.53;4862511;29;20041;-88
2022/09/06 00:26:30;;;;;;;7.05;5.18;;;;;;;21.82;55.40;93744.03;4844031;29;20033;-88
2022/09/06 00:28:56;;;;;;;5.88;4.53;;;;;;;21.85;55.14;93745.75;4862374;29;20048;-88
2022/09/06 00:31:23;;;;;;;6.78;4.80;;;;;;;21.83;55.38;93742.03;4846108;29;20045;-91
2022/09/06 00:33:49;;;;;;;7.10;4.90;;;;;;;21.83;55.32;93744.78;4847194;29;20049;-89
2022/09/06 00:36:15;;;;;;;6.55;4.93;;;;;;;21.83;55.19;93736.53;4846565;29;20519;-90
2022/09/06 00:38:41;;;;;;;9.45;5.32;;;;;;;21.82;55.20;93744.03;4861249;29;20109;-89
2022/09/06 00:41:07;;;;;;;6.20;4.85;;;;;;;21.82;55.17;93729.53;4861080;29;20041;-89
2022/09/06 00:43:33;;;;;;;7.47;4.90;;;;;;;21.82;54.74;93741.28;4846963;29;20038;-91
2022/09/06 00:45:58;;;;;;;5.50;4.80;;;;;;;21.82;55.13;93735.78;4843985;29;20224;-87
2022/09/06 00:48:23;;;;;;;6.68;5.30;;;;;;;21.81;55.14;93737.06;4842808;29;20037;-87
2022/09/06 00:50:51;;;;;;;6.50;5.45;;;;;;;21.83;55.04;93739.28;4858712;29;20041;-90
2022/09/06 00:53:16;;;;;;;6.50;4.93;;;;;;;21.81;55.09;93742.56;4861178;29;20049;-88
2022/09/06 00:55:42;;;;;;;7.00;4.63;;;;;;;21.82;55.53;93732.28;4846907;29;20080;-89
2022/09/06 00:58:08;;;;;;;5.75;4.55;;;;;;;21.80;55.16;93735.56;4847206;29;20045;-89
2022/09/06 01:00:33;;;;;;;6.78;4.65;;;;;;;21.83;55.01;93736.53;4861447;29;20045;-91
2022/09/06 01:03:01;;;;;;;5.20;4.70;;;;;;;21.81;54.98;93737.06;4877972;29;20053;-90
2022/09/06 01:05:34;;;;;;;5.57;4.45;;;;;;;21.80;55.18;93740.31;4848545;29;20052;-89
2022/09/06 01:08:07;;;;;;;5.35;4.25;;;;;;;21.82;55.15;93735.78;4867122;29;20041;-91
2022/09/06 01:10:46;;;;;;;6.30;4.60;;;;;;;21.80;55.15;93734.81;4880965;29;20496;-90
2022/09/06 01:13:48;;;;;;;6.65;4.22;;;;;;;21.80;55.04;93738.31;4866224;29;20049;-89
2022/09/06 01:16:35;;;;;;;5.00;4.40;;;;;;;21.80;55.18;93732.81;4836378;29;20113;-90
2022/09/06 01:19:31;;;;;;;6.38;4.95;;;;;;;21.79;55.21;93733.34;4881709;29;20071;-89
2022/09/06 01:22:18;;;;;;;7.07;4.57;;;;;;;21.78;54.85;93729.84;4881840;29;20052;-88
2022/09/06 01:25:17;;;;;;;9.25;5.03;;;;;;;21.80;55.03;93726.56;4897102;29;20552;-92
2022/09/06 01:28:06;;;;;;;7.13;5.20;;;;;;;21.78;55.19;93729.84;4874554;29;20053;-90
2022/09/06 01:30:31;;;;;;;6.30;4.47;;;;;;;21.78;55.07;93729.09;4864867;29;20045;-88
2022/09/06 01:33:09;;;;;;;7.22;4.85;;;;;;;21.78;54.92;93729.84;4866891;29;20073;-88
2022/09/06 01:35:43;;;;;;;6.22;4.90;;;;;;;21.78;54.88;93731.84;4850511;29;20053;-91
2022/09/06 01:38:08;;;;;;;6.07;4.90;;;;;;;21.78;55.12;93726.34;4864874;29;20397;-90
2022/09/06 01:40:35;;;;;;;5.72;4.85;;;;;;;21.79;55.04;93730.59;4857243;29;20075;-88
2022/09/06 01:43:03;;;;;;;5.00;4.15;;;;;;;21.78;54.96;93734.59;4865748;29;20496;-90
2022/09/06 01:45:42;;;;;;;6.13;4.60;;;;;;;21.77;55.00;93722.84;4850742;29;20539;-92
2022/09/06 01:48:35;;;;;;;7.10;4.75;;;;;;;21.78;54.96;93718.09;4866621;29;20061;-90
2022/09/06 01:51:10;;;;;;;5.32;4.05;;;;;;;21.79;54.93;93725.09;4864255;29;20073;-86
2022/09/06 01:53:47;;;;;;;4.47;3.97;;;;;;;21.76;55.00;93724.13;4850649;29;20052;-91
2022/09/06 01:56:29;;;;;;;4.70;3.90;;;;;;;21.78;54.88;93727.09;4865670;29;20056;-90
2022/09/06 01:59:27;;;;;;;7.15;4.50;;;;;;;21.77;55.07;93725.59;4851504;29;20504;-91
2022/09/06 02:02:11;;;;;;;5.90;4.60;;;;;;;21.76;54.61;93732.38;4881622;29;20066;-89
2022/09/06 02:04:44;;;;;;;5.20;4.32;;;;;;;21.78;54.97;93729.84;4848527;29;20058;-87
2022/09/06 02:07:14;;;;;;;5.43;4.57;;;;;;;21.74;55.26;93725.91;4847429;29;20417;-90
2022/09/06 02:09:42;;;;;;;6.35;4.63;;;;;;;21.75;54.99;93716.38;4832552;29;20042;-87
2022/09/06 02:12:08;;;;;;;5.28;4.18;;;;;;;21.78;55.03;93729.09;4855330;29;20068;-93
2022/09/06 02:14:46;;;;;;;4.75;4.03;;;;;;;21.75;54.95;93736.38;4846949;29;20278;-90
2022/09/06 02:17:13;;;;;;;4.43;4.03;;;;;;;21.75;55.00;93733.63;4827788;29;20042;-89
2022/09/06 02:19:43;;;;;;;5.03;4.50;;;;;;;21.77;54.43;93739.38;4840216;29;20060;-88
2022/09/06 02:22:10;;;;;;;4.60;4.18;;;;;;;21.77;54.72;93733.84;4850316;29;20060;-92
2022/09/06 02:24:36;;;;;;;5.03;4.53;;;;;;;21.76;54.85;93732.38;4866156;29;20420;-90
2022/09/06 02:27:01;;;;;;;4.45;3.72;;;;;;;21.77;54.79;93730.38;4842892;29;20053;-90
2022/09/06 02:29:27;;;;;;;5.70;4.10;;;;;;;21.76;54.91;93737.88;4865005;29;20041;-91
2022/09/06 02:32:00;;;;;;;6.45;3.95;;;;;;;21.77;54.67;93733.13;4865141;29;20105;-89
2022/09/06 02:34:26;;;;;;;4.35;3.72;;;;;;;21.75;54.90;93730.88;4849816;29;20105;-88
2022/09/06 02:36:51;;;;;;;4.53;3.55;;;;;;;21.75;54.70;93732.91;4880801;29;20037;-88
2022/09/06 02:39:17;;;;;;;5.00;4.47;;;;;;;21.75;54.80;93728.13;4849043;29;20049;-91
2022/09/06 02:41:43;;;;;;;4.30;3.70;;;;;;;21.77;54.61;93722.09;4849871;29;20052;-91
2022/09/06 02:44:09;;;;;;;5.70;3.97;;;;;;;21.76;54.81;93729.63;4848412;29;20556;-91
2022/09/06 02:46:34;;;;;;;3.95;3.53;;;;;;;21.75;54.77;93727.38;4864541;29;20045;-88
2022/09/06 02:48:59;;;;;;;5.03;4.22;;;;;;;21.74;54.97;93729.41;4849169;29;20654;-91
2022/09/06 02:51:26;;;;;;;5.10;4.05;;;;;;;21.77;55.01;93733.84;4831980;29;20539;-88
2022/09/06 02:53:51;;;;;;;4.75;3.88;;;;;;;21.75;54.75;93721.88;4849023;29;20181;-89
2022/09/06 02:56:17;;;;;;;4.18;3.75;;;;;;;21.76;54.85;93726.13;4831891;29;20045;-86
2022/09/06 02:58:42;;;;;;;4.15;3.63;;;;;;;21.74;54.62;93723.91;4834123;29;20439;-90
2022/09/06 03:01:08;;;;;;;4.20;3.67;;;;;;;21.74;54.51;93723.16;4832985;29;20740;-90
2022/09/06 03:03:33;;;;;;;4.13;3.72;;;;;;;21.75;54.80;93721.88;4847442;29;20078;-86
2022/09/06 03:05:58;;;;;;;4.55;4.10;;;;;;;21.73;54.83;93722.41;4847297;29;20140;-88
2022/09/06 03:08:25;;;;;;;5.22;4.38;;;;;;;21.74;54.79;93710.13;4832004;29;20045;-87
2022/09/06 03:10:54;;;;;;;3.83;3.17;;;;;;;21.73;54.67;93713.41;4832569;29;20171;-89
2022/09/06 03:13:20;;;;;;;4.00;3.60;;;;;;;21.72;54.74;93718.19;4847843;29;20090;-88
2022/09/06 03:15:50;;;;;;;5.95;4.18;;;;;;;21.73;54.89;93721.66;4838909;29;20076;-90
2022/09/06 03:18:16;;;;;;;5.13;3.58;;;;;;;21.73;54.43;93716.91;4814581;29;20045;-89
2022/09/06 03:20:43;;;;;;;4.78;3.63;;;;;;;21.74;54.79;93726.66;4848330;29;20041;-92
2022/09/06 03:23:08;;;;;;;4.13;3.53;;;;;;;21.73;54.57;93724.41;4860081;29;20057;-89
2022/09/06 03:25:41;;;;;;;4.82;3.63;;;;;;;21.72;54.83;93723.69;4864755;29;20063;-88
2022/09/06 03:28:07;;;;;;;4.90;3.92;;;;;;;21.72;54.53;93718.19;4840076;29;20047;-88
2022/09/06 03:30:32;;;;;;;4.57;3.72;;;;;;;21.72;54.49;93720.94;4864498;29;20049;-90
2022/09/06 03:32:58;;;;;;;4.22;3.50;;;;;;;21.72;54.51;93720.94;4849342;29;20041;-89
2022/09/06 03:35:23;;;;;;;4.28;3.22;;;;;;;21.72;54.57;93714.69;4849127;29;20037;-88
2022/09/06 03:37:49;;;;;;;4.78;3.70;;;;;;;21.72;54.50;93709.91;4849394;29;20041;-89
2022/09/06 03:40:17;;;;;;;3.63;3.33;;;;;;;21.72;54.71;93698.16;4877001;29;20033;-89
2022/09/06 03:42:43;;;;;;;4.97;3.88;;;;;;;21.71;54.73;93707.69;4827387;29;20045;-91
2022/09/06 03:45:08;;;;;;;6.18;4.22;;;;;;;21.72;54.59;93711.94;4860986;29;20045;-91
2022/09/06 03:47:35;;;;;;;3.65;3.20;;;;;;;21.73;54.36;93708.66;4860121;29;20057;-87
2022/09/06 03:50:01;;;;;;;5.60;3.70;;;;;;;21.71;54.61;93702.94;4852133;29;20037;-91
2022/09/06 03:52:26;;;;;;;4.50;3.10;;;;;;;21.72;54.57;93701.66;4836587;29;20101;-89
2022/09/06 03:54:54;;;;;;;5.13;3.65;;;;;;;21.74;54.57;93693.63;4865422;29;20076;-89
2022/09/06 03:57:19;;;;;;;4.20;3.10;;;;;;;21.75;55.02;93695.13;4849559;29;20049;-89
2022/09/06 03:59:45;;;;;;;7.13;3.95;;;;;;;21.74;54.52;93701.88;4877238;29;20045;-91
2022/09/06 04:02:11;;;;;;;4.93;3.55;;;;;;;21.74;54.72;93695.63;4860972;29;20386;-89
2022/09/06 04:04:37;;;;;;;4.97;4.20;;;;;;;21.73;54.57;93692.16;4829029;29;20075;-89
2022/09/06 04:07:03;;;;;;;6.45;3.75;;;;;;;21.74;54.76;93693.63;4828610;29;20037;-90
2022/09/06 04:09:29;;;;;;;4.97;3.13;;;;;;;21.72;54.69;93687.91;4827269;29;20042;-89
2022/09/06 04:11:55;;;;;;;4.32;3.60;;;;;;;21.73;54.56;93699.66;4824833;29;20054;-89
2022/09/06 04:14:20;;;;;;;4.75;4.15;;;;;;;21.69;53.90;93693.72;4834135;29;20037;-87
2022/09/06 04:16:46;;;;;;;6.38;5.05;;;;;;;21.64;53.46;93691.81;4827516;29;20062;-91
2022/09/06 04:19:12;;;;;;;6.10;5.40;;;;;;;21.57;52.51;93692.44;4841977;29;20068;-90
2022/09/06 04:21:38;;;;;;;8.18;5.60;;;;;;;21.55;52.27;93693.69;4829893;29;20050;-91
2022/09/06 04:24:03;;;;;;;8.20;5.55;;;;;;;21.52;51.93;93688.50;4829912;29;20080;-91
2022/09/06 04:26:29;;;;;;;11.93;6.80;;;;;;;21.50;51.98;93694.50;4833709;29;20045;-88
2022/09/06 04:29:01;;;;;;;11.88;7.20;;;;;;;21.49;51.98;93693.03;4826513;29;20044;-86
2022/09/06 04:31:30;;;;;;;13.05;6.63;;;;;;;21.45;52.29;93689.84;4854559;29;20509;-92
2022/09/06 04:33:56;;;;;;;85.57;66.15;;;;;;;21.46;52.67;93690.59;4845259;29;20106;-95
2022/09/06 04:36:28;;;;;;;47.15;22.35;;;;;;;21.47;52.75;93697.56;4823211;29;20038;-88
2022/09/06 04:39:01;;;;;;;66.10;37.90;;;;;;;21.47;52.85;93692.81;4839590;29;20045;-93
2022/09/06 04:41:28;;;;;;;80.38;49.92;;;;;;;21.49;52.60;93693.03;4857619;29;20129;-91
2022/09/06 04:43:54;;;;;;;272.75;134.50;;;;;;;21.48;51.70;93688.78;4821137;29;20042;-89
2022/09/06 04:46:42;;;;;;;128.43;57.40;;;;;;;21.48;51.62;93697.03;4832812;29;20093;-88
2022/09/06 04:49:07;;;;;;;52.67;22.92;;;;;;;21.40;51.78;93693.44;4830626;29;20049;-89
2022/09/06 04:51:56;;;;;;;26.08;11.25;;;;;;;21.36;52.20;93703.25;4812350;29;20060;-90
2022/09/06 04:54:28;;;;;;;21.08;11.90;;;;;;;21.18;52.24;93702.00;4830677;29;20042;-89
2022/09/06 04:56:54;;;;;;;55.85;32.92;;;;;;;20.99;52.73;93696.50;4809232;29;20045;-88
2022/09/06 04:59:23;;;;;;;24.48;11.95;;;;;;;20.94;53.10;93702.09;4833198;29;20076;-89
2022/09/06 05:01:54;;;;;;;24.40;11.52;;;;;;;20.82;53.37;93712.47;4823076;29;20664;-90
2022/09/06 05:04:24;;;;;;;12.13;9.05;;;;;;;20.79;53.53;93702.50;4785425;29;20049;-88
2022/09/06 05:07:07;;;;;;;40.17;12.20;;;;;;;20.77;53.59;93713.28;4794974;29;20083;-87
2022/09/06 05:09:34;;;;;;;15.70;9.07;;;;;;;20.60;54.10;93710.75;4777168;29;20050;-88
2022/09/06 05:12:03;;;;;;;14.20;7.70;;;;;;;20.60;54.03;93713.47;4798389;29;20053;-88
2022/09/06 05:14:35;;;;;;;10.93;8.15;;;;;;;20.54;54.26;93704.59;4815290;29;20049;-89
2022/09/06 05:17:00;;;;;;;10.02;8.32;;;;;;;20.45;54.62;93722.16;4802330;29;20050;-89
2022/09/06 05:19:37;;;;;;;13.98;7.63;;;;;;;20.47;54.62;93718.91;4784428;29;20050;-91
2022/09/06 05:22:03;;;;;;;13.25;7.97;;;;;;;20.46;54.80;93714.66;4801598;29;20043;-88
2022/09/06 05:24:28;;;;;;;15.02;7.63;;;;;;;20.43;54.94;93729.41;4795377;29;20057;-90
2022/09/06 05:26:54;;;;;;;11.48;9.27;;;;;;;20.42;55.08;93725.19;4793706;29;20061;-91
2022/09/06 05:29:38;;;;;;;43.95;22.55;;;;;;;20.47;55.04;93733.38;4799374;29;20049;-89
2022/09/06 05:32:03;;;;;;;15.82;11.70;;;;;;;20.41;55.47;93721.69;4821547;29;20045;-89
2022/09/06 05:35:00;;;;;;;15.68;10.75;;;;;;;20.50;55.39;93729.59;4822070;29;20149;-92
2022/09/06 05:37:26;;;;;;;28.13;13.75;;;;;;;20.41;55.78;93729.94;4804870;29;20058;-92
2022/09/06 05:39:51;;;;;;;21.42;11.98;;;;;;;20.39;55.81;93729.69;4804315;29;20063;-93
2022/09/06 05:42:17;;;;;;;16.45;10.57;;;;;;;20.39;55.97;93726.97;4809097;29;20042;-91
2022/09/06 05:44:42;;;;;;;23.05;13.55;;;;;;;20.34;56.07;93730.50;4784168;29;20070;-89
2022/09/06 05:47:08;;;;;;;16.60;11.45;;;;;;;20.36;56.42;93718.97;4798706;29;20047;-87
2022/09/06 05:49:40;;;;;;;14.20;11.88;;;;;;;20.34;56.49;93732.50;4780941;29;20046;-87
2022/09/06 05:52:09;;;;;;;16.08;11.20;;;;;;;20.36;56.70;93736.19;4750422;29;20043;-90
2022/09/06 05:54:48;;;;;;;35.40;12.50;;;;;;;20.42;56.29;93734.16;4765839;29;20062;-88
2022/09/06 05:57:16;;;;;;;20.92;11.52;;;;;;;20.41;56.43;93735.44;4767477;29;20035;-87
2022/09/06 05:59:42;;;;;;;24.52;11.07;;;;;;;20.40;56.65;93733.19;4784064;29;20143;-87
2022/09/06 06:02:08;;;;;;;22.40;11.40;;;;;;;20.39;56.75;93732.44;4778867;29;20591;-92
2022/09/06 06:04:37;;;;;;;32.53;11.73;;;;;;;20.38;56.84;93728.22;4755733;29;20057;-91
2022/09/06 06:07:07;;;;;;;31.83;20.25;;;;;;;20.47;56.87;93736.13;4753627;29;20040;-91
2022/09/06 06:09:34;;;;;;;17.27;14.00;;;;;;;20.43;56.87;93729.41;4763566;29;20533;-88
2022/09/06 06:12:06;;;;;;;14.95;12.65;;;;;;;20.48;56.87;93728.63;4759246;30;20055;-92
2022/09/06 06:14:31;;;;;;;14.52;12.57;;;;;;;20.49;56.51;93727.38;4799175;29;20483;-94
2022/09/06 06:17:44;;;;;;;49.05;42.60;;;;;;;20.61;56.51;93736.19;4827828;29;20129;-96
2022/09/06 06:20:09;;;;;;;11.20;8.27;;;;;;;20.51;57.04;93738.56;4769046;29;20445;-86
2022/09/06 06:22:35;;;;;;;14.20;8.20;;;;;;;20.49;56.86;93741.84;4760878;30;20103;-90
2022/09/06 06:25:01;;;;;;;24.08;11.30;;;;;;;20.48;57.00;93737.59;4755359;30;20047;-91
2022/09/06 06:27:26;;;;;;;34.75;12.25;;;;;;;20.48;57.20;93740.34;4760301;29;20042;-89
2022/09/06 06:29:52;;;;;;;42.28;16.98;;;;;;;20.42;57.12;93745.16;4774314;29;20055;-91
2022/09/06 06:32:17;;;;;;;53.53;25.92;;;;;;;20.47;56.91;93747.09;4744748;29;20047;-92
2022/09/06 06:34:52;;;;;;;59.63;32.83;;;;;;;20.52;56.83;93742.81;4738883;30;20043;-94
2022/09/06 06:37:18;;;;;;;40.08;23.02;;;;;;;20.52;56.62;93749.03;4783717;29;20048;-93
2022/09/06 06:39:47;;;;;;;42.10;22.95;;;;;;;20.52;56.63;93751.78;4780090;29;20062;-90
2022/09/06 06:42:16;;;;;;;81.35;47.38;;;;;;;20.55;57.02;93755.50;4759002;29;20043;-91
2022/09/06 06:44:42;;;;;;;43.92;28.88;;;;;;;20.61;57.17;93752.69;4782663;29;20092;-92
2022/09/06 06:47:07;;;;;;;38.13;26.20;;;;;;;20.58;57.34;93751.72;4758505;29;20047;-92
2022/09/06 06:49:33;;;;;;;48.28;30.48;;;;;;;20.62;57.62;93745.94;4755668;29;20153;-90
2022/09/06 06:51:58;;;;;;;44.33;24.55;;;;;;;20.59;58.04;93747.69;4743404;29;20111;-88
2022/09/06 06:54:24;;;;;;;68.70;26.17;;;;;;;20.66;58.66;93749.13;4774726;29;20043;-93
2022/09/06 06:56:50;;;;;;;54.40;19.27;;;;;;;20.64;58.56;93754.41;4812155;29;20047;-90
2022/09/06 06:59:16;;;;;;;21.08;12.73;;;;;;;20.65;58.39;93751.13;4845343;29;20543;-90
2022/09/06 07:01:41;;;;;;;29.13;19.30;;;;;;;20.67;58.47;93742.38;4848669;29;20036;-90
2022/09/06 07:04:09;;;;;;;44.72;29.75;;;;;;;20.65;58.31;93750.41;4841861;29;20065;-89
2022/09/06 07:06:51;;;;;;;38.80;20.90;;;;;;;20.71;58.85;93756.56;4833108;29;20079;-89
2022/09/06 07:09:17;;;;;;;34.10;21.30;;;;;;;20.67;58.54;93756.13;4889397;29;20069;-89
2022/09/06 07:11:43;;;;;;;30.70;15.68;;;;;;;20.68;58.29;93749.38;4833001;29;20072;-91
2022/09/06 07:14:08;;;;;;;29.70;17.80;;;;;;;20.73;58.83;93749.31;4841911;29;20068;-88
2022/09/06 07:16:35;;;;;;;21.55;15.43;;;;;;;20.74;58.97;93755.53;4858525;29;20538;-90
2022/09/06 07:19:00;;;;;;;29.17;20.05;;;;;;;20.72;58.97;93745.06;4840682;29;20136;-91
2022/09/06 07:21:26;;;;;;;37.85;24.75;;;;;;;20.78;58.94;93751.25;4827200;29;20056;-88
2022/09/06 07:23:52;;;;;;;73.93;29.45;;;;;;;20.74;59.04;93756.28;4825576;29;20042;-88
2022/09/06 07:26:20;;;;;;;34.63;14.88;;;;;;;20.77;59.26;93754.50;4824295;29;20258;-87
2022/09/06 07:28:45;;;;;;;28.23;15.50;;;;;;;20.76;58.90;93753.78;4845568;29;20042;-90
2022/09/06 07:31:13;;;;;;;19.10;10.98;;;;;;;20.77;58.99;93752.50;4829885;29;20048;-86
2022/09/06 07:33:39;;;;;;;18.27;11.30;;;;;;;20.85;58.82;93752.66;4824867;29;20186;-88
2022/09/06 07:36:31;;;;;;;14.18;9.18;;;;;;;20.81;58.81;93758.44;4838314;29;20061;-89
2022/09/06 07:39:09;;;;;;;17.42;9.15;;;;;;;20.82;58.58;93753.69;4814713;29;20137;-88
2022/09/06 07:41:34;;;;;;;49.38;14.88;;;;;;;20.84;58.64;93753.91;4789631;29;20053;-90
2022/09/06 07:44:00;;;;;;;39.72;15.10;;;;;;;20.87;58.92;93744.63;4791739;29;20042;-90
2022/09/06 07:46:25;;;;;;;92.85;26.20;;;;;;;20.88;59.08;93746.88;4779198;29;20046;-89
2022/09/06 07:48:51;;;;;;;65.30;18.65;;;;;;;20.91;59.26;93747.09;4788526;29;20561;-89
2022/09/06 07:51:18;;;;;;;35.00;12.80;;;;;;;20.95;59.17;93748.28;4799046;29;20069;-88
2022/09/06 07:53:46;;;;;;;21.17;9.80;;;;;;;20.96;59.28;93746.28;4812905;29;20042;-88
2022/09/06 07:56:12;;;;;;;27.23;9.60;;;;;;;20.92;59.44;93756.81;4818129;29;20054;-91
2022/09/06 07:58:38;;;;;;;40.38;9.95;;;;;;;20.98;59.48;93763.00;4819942;29;20431;-88
2022/09/06 08:01:16;;;;;;;73.40;14.15;;;;;;;21.03;59.65;93764.91;4794460;29;20084;-86
2022/09/06 08:03:42;;;;;;;32.63;10.40;;;;;;;20.99;59.71;93761.72;4837349;29;20058;-89
2022/09/06 08:06:07;;;;;;;28.17;9.48;;;;;;;21.05;59.93;93765.88;4787986;29;20030;-89
2022/09/06 08:08:33;;;;;;;40.13;11.40;;;;;;;21.08;59.23;93756.59;4791933;29;20050;-88
2022/09/06 08:11:00;;;;;;;31.98;13.15;;;;;;;21.09;59.42;93749.84;4801109;29;20497;-89
2022/09/06 08:13:25;;;;;;;39.20;20.48;;;;;;;21.09;59.45;93758.09;4782353;29;20054;-88
2022/09/06 08:15:59;;;;;;;60.47;25.90;;;;;;;21.13;59.29;93763.28;4843094;29;20460;-91
2022/09/06 08:18:24;;;;;;;41.10;23.83;;;;;;;21.11;59.41;93763.06;4830757;29;20042;-89
2022/09/06 08:20:50;;;;;;;55.80;17.38;;;;;;;21.12;59.38;93761.81;4853423;29;20112;-90
2022/09/06 08:23:15;;;;;;;83.88;21.15;;;;;;;21.13;59.41;93761.28;4835120;29;20030;-90
2022/09/06 08:25:41;;;;;;;43.08;16.80;;;;;;;21.15;59.32;93761.50;4836035;29;20048;-88
2022/09/06 08:28:06;;;;;;;46.97;16.00;;;;;;;21.17;59.27;93763.75;4844389;29;20037;-90
2022/09/06 08:30:34;;;;;;;47.15;13.63;;;;;;;21.15;59.48;93761.50;4832772;29;20037;-88
2022/09/06 08:33:00;;;;;;;19.83;10.48;;;;;;;21.16;59.89;93771.25;4854009;29;20069;-89
2022/09/06 08:35:25;;;;;;;18.50;10.68;;;;;;;21.20;59.96;93773.72;4837443;29;20041;-89
2022/09/06 08:37:51;;;;;;;19.05;11.88;;;;;;;21.25;59.82;93774.91;4855469;29;20040;-90
2022/09/06 08:40:19;;;;;;;24.35;14.23;;;;;;;21.23;59.84;93769.91;4836086;29;20045;-90
2022/09/06 08:42:44;;;;;;;25.33;13.52;;;;;;;21.27;59.64;93772.38;4850690;29;20037;-88
2022/09/06 08:45:11;;;;;;;25.48;15.52;;;;;;;21.29;59.88;93759.59;4838972;29;20398;-90
2022/09/06 08:47:36;;;;;;;32.60;16.38;;;;;;;21.31;59.65;93753.56;4842948;29;20500;-88
2022/09/06 08:50:05;;;;;;;93.40;21.20;;;;;;;21.32;59.78;93761.31;4828038;29;20121;-88
2022/09/06 08:52:42;;;;;;;55.60;23.98;;;;;;;21.33;60.00;93760.03;4826731;29;20097;-88
2022/09/06 08:55:16;;;;;;;48.90;25.08;;;;;;;21.37;60.12;93754.25;4853590;29;20084;-89
2022/09/06 08:57:52;;;;;;;46.97;22.08;;;;;;;21.37;60.54;93757.72;4860304;29;20132;-90
2022/09/06 09:00:17;;;;;;;49.28;25.55;;;;;;;21.40;60.37;93753.94;4856334;29;20049;-88
2022/09/06 09:02:45;;;;;;;51.45;33.90;;;;;;;21.41;60.95;93747.19;4852194;29;20037;-88
2022/09/06 09:05:23;;;;;;;62.65;34.78;;;;;;;21.39;61.27;93746.97;4838792;29;20054;-88
2022/09/06 09:07:50;;;;;;;60.03;33.92;;;;;;;21.38;61.57;93755.72;4844595;29;20056;-90
2022/09/06 09:10:28;;;;;;;54.25;30.40;;;;;;;21.41;61.70;93754.69;4864862;29;20049;-87
2022/09/06 09:12:53;;;;;;;52.08;29.65;;;;;;;21.39;62.13;93757.97;4842927;29;20440;-87
2022/09/06 09:15:19;;;;;;;69.50;33.75;;;;;;;21.38;61.64;93748.22;4842722;29;20056;-87
2022/09/06 09:17:44;;;;;;;57.42;31.45;;;;;;;21.42;61.38;93747.94;4835747;29;20049;-88
2022/09/06 09:20:10;;;;;;;58.67;31.85;;;;;;;21.48;61.82;93751.31;4832225;29;20053;-86
2022/09/06 09:22:36;;;;;;;69.55;31.80;;;;;;;21.48;61.79;93751.31;4852588;29;20669;-87
2022/09/06 09:25:02;;;;;;;43.90;23.33;;;;;;;21.51;62.09;93748.25;4848165;29;20048;-88
2022/09/06 09:27:27;;;;;;;31.10;19.70;;;;;;;21.50;62.49;93746.78;4849961;29;20037;-87
2022/09/06 09:29:52;;;;;;;39.03;18.33;;;;;;;21.44;62.82;93748.13;4835249;29;20140;-90
2022/09/06 09:32:38;;;;;;;34.13;22.10;;;;;;;21.42;62.83;93745.19;4841830;29;20089;-87
2022/09/06 09:35:24;;;;;;;41.92;27.13;;;;;;;21.45;63.01;93749.59;4836762;29;20060;-85
2022/09/06 09:38:05;;;;;;;37.65;24.45;;;;;;;21.48;62.73;93740.31;4815447;29;20049;-90
2022/09/06 09:40:35;;;;;;;41.05;24.95;;;;;;;21.45;63.18;93736.59;4812873;29;20058;-90
2022/09/06 09:43:23;;;;;;;50.92;26.83;;;;;;;21.46;63.06;93737.34;4846377;29;20121;-87
2022/09/06 09:46:09;;;;;;;73.72;32.20;;;;;;;21.44;63.27;93737.84;4807439;29;20049;-91
2022/09/06 09:48:35;;;;;;;60.38;30.25;;;;;;;21.42;63.10;93736.91;4825194;29;20396;-86
2022/09/06 09:51:21;;;;;;;66.57;30.73;;;;;;;21.44;63.14;93731.63;4842834;29;20043;-89
2022/09/06 09:53:52;;;;;;;59.38;29.55;;;;;;;21.47;62.90;93733.31;4822481;29;20050;-91
2022/09/06 09:56:25;;;;;;;54.03;25.75;;;;;;;21.48;63.03;93737.56;4838620;29;20048;-87
2022/09/06 09:58:50;;;;;;;60.60;28.98;;;;;;;21.50;63.06;93732.28;4826786;29;20137;-88
2022/09/06 10:01:21;;;;;;;56.03;28.38;;;;;;;21.49;63.03;93725.28;4835387;29;20090;-90
2022/09/06 10:03:49;;;;;;;50.15;27.52;;;;;;;21.51;63.21;93737.25;4840502;29;20104;-87
2022/09/06 10:06:14;;;;;;;48.65;25.08;;;;;;;21.54;63.36;93738.22;4835570;29;20050;-89
2022/09/06 10:08:41;;;;;;;43.05;23.55;;;;;;;21.56;63.21;93735.69;4852552;29;20057;-90
2022/09/06 10:11:10;;;;;;;45.70;23.70;;;;;;;21.60;63.24;93732.66;4840794;29;20037;-89
2022/09/06 10:13:36;;;;;;;39.47;23.05;;;;;;;21.55;63.47;93723.94;4832024;29;20045;-89
2022/09/06 10:16:02;;;;;;;27.45;16.63;;;;;;;21.60;63.38;93732.66;4823561;29;20045;-85
2022/09/06 10:18:40;;;;;;;28.05;16.80;;;;;;;21.57;63.07;93730.94;4850670;29;20045;-90
2022/09/06 10:21:11;;;;;;;29.08;17.23;;;;;;;21.60;63.05;93721.66;4854041;29;20529;-88
2022/09/06 10:24:10;;;;;;;20.70;14.57;;;;;;;21.56;63.05;93730.19;4828793;29;20072;-85
2022/09/06 10:26:42;;;;;;;22.48;14.82;;;;;;;21.60;63.25;93733.38;4854157;29;20147;-85
2022/09/06 10:29:08;;;;;;;21.55;14.30;;;;;;;21.62;63.59;93732.88;4870789;29;20045;-91
2022/09/06 10:31:56;;;;;;;20.15;14.68;;;;;;;21.61;63.15;93728.63;4859689;29;20041;-87
2022/09/06 10:34:49;;;;;;;18.42;14.23;;;;;;;21.60;63.18;93727.16;4874916;29;20049;-90
2022/09/06 10:37:45;;;;;;;14.88;13.27;;;;;;;21.60;63.32;93727.88;4844004;29;20104;-91
2022/09/06 10:40:11;;;;;;;14.05;12.25;;;;;;;21.61;63.31;93723.88;4872200;29;20072;-87
2022/09/06 10:42:46;;;;;;;14.73;12.65;;;;;;;21.63;63.17;93737.09;4850658;29;20040;-86
2022/09/06 10:45:28;;;;;;;15.45;12.07;;;;;;;21.63;63.34;93729.59;4856502;29;20107;-87
2022/09/06 10:48:01;;;;;;;15.60;11.05;;;;;;;21.61;63.31;93732.13;4875602;29;20505;-91
2022/09/06 10:50:34;;;;;;;15.38;11.98;;;;;;;21.61;63.12;93740.38;4846117;29;20156;-90
2022/09/06 10:53:07;;;;;;;14.38;10.60;;;;;;;21.62;63.44;93730.13;4851326;29;20097;-88
2022/09/06 10:55:33;;;;;;;13.57;12.18;;;;;;;21.62;63.17;93732.88;4848152;29;20044;-91
2022/09/06 10:58:03;;;;;;;60.72;35.42;;;;;;;21.67;63.03;93729.25;4861203;29;20037;-88
2022/09/06 11:00:31;;;;;;;67.65;39.63;;;;;;;21.65;63.54;93729.78;4836656;29;20048;-91
2022/09/06 11:03:06;;;;;;;73.60;47.67;;;;;;;21.66;63.35;93714.03;4840757;29;20084;-90
2022/09/06 11:05:37;;;;;;;103.03;55.35;;;;;;;21.67;63.41;93719.00;4889623;29;20052;-90
2022/09/06 11:08:07;;;;;;;80.97;49.45;;;;;;;21.65;63.33;93721.53;4862472;29;20621;-92
2022/09/06 11:10:39;;;;;;;86.85;55.00;;;;;;;21.65;63.28;93724.28;4851254;29;20041;-89
2022/09/06 11:13:18;;;;;;;90.25;56.67;;;;;;;21.70;62.90;93722.72;4832620;29;20056;-90
2022/09/06 11:16:00;;;;;;;86.95;49.42;;;;;;;21.67;62.77;93712.75;4847476;29;20056;-92
2022/09/06 11:18:41;;;;;;;87.78;53.22;;;;;;;21.70;62.47;93720.72;4844450;29;20045;-90
2022/09/06 11:21:18;;;;;;;147.45;89.63;;;;;;;21.71;62.23;93724.94;4856534;29;20045;-90
2022/09/06 11:23:49;;;;;;;139.00;82.53;;;;;;;21.68;61.64;93722.50;4839195;29;20049;-91
2022/09/06 11:26:33;;;;;;;150.68;89.55;;;;;;;21.69;61.47;93712.97;4844533;29;20476;-91
2022/09/06 11:29:03;;;;;;;163.40;100.32;;;;;;;21.68;61.22;93720.47;4868796;29;20049;-90
2022/09/06 11:31:32;;;;;;;152.50;91.57;;;;;;;21.69;61.47;93719.22;4815868;29;20061;-89
2022/09/06 11:34:08;;;;;;;105.43;63.60;;;;;;;21.70;61.35;93712.44;4834302;29;20048;-91
2022/09/06 11:36:39;;;;;;;94.45;59.40;;;;;;;21.71;61.29;93702.94;4834118;29;20091;-88
2022/09/06 11:39:06;;;;;;;113.85;62.80;;;;;;;21.74;60.98;93710.13;4811596;29;20045;-91